Nearby METAR Reports

 

LEVT - Vitoria, Spain
Distance from station: O 10km
Actualización: 14/10/2019 00:00
Despejado
Despejado
 Viento del varies
Viento: varies 4 km/h
Temperatura: 20°C
Rocío: 6°C
Humedad: 40%
Barómetro: 1012 hPa
Resumen: Despejado
Visibility: greater than 10 km
2019/10/13 22:00 LEVT 132200Z VRB02KT CAVOK 20/06 Q1012
LELO - Logrono/Agoncill, Spain
Distance from station: SSE 51km
Actualización: 14/10/2019 00:00
Despejado
Despejado
 Viento del ESE
Viento: ESE 7 km/h
Temperatura: 19°C
Rocío: 13°C
Humedad: 68%
Barómetro: 1012 hPa
Clouds: Despejado
Visibility: 10 km
2019/10/13 22:00 LELO 132200Z AUTO 11004KT 070V150 9999 NCD 19/13 Q1012
LEBB - Bilbao/Sondica, Spain
Distance from station: NNO 54km
Actualización: 14/10/2019 00:00
Few Clouds
Few Clouds
 Viento del E
Viento: E 6 km/h
Temperatura: 16°C
Rocío: 15°C
Humedad: 94%
Barómetro: 1009 hPa
Clouds: Few Clouds
Visibility: 10 km
Cloud details: Few Clouds 610 m
2019/10/13 22:00 LEBB 132200Z 10003KT 070V140 9999 FEW020 16/15 Q1009 NOSIG
 
LEPP - Pamplona/Noain, Spain
Distance from station: E 78km
Actualización: 14/10/2019 00:00
Despejado
Despejado
 Viento del SE
Viento: SE 22 km/h
Temperatura: 21°C
Rocío: 14°C
Humedad: 64%
Barómetro: 1013 hPa
Resumen: Despejado
Visibility: greater than 10 km
2019/10/13 22:00 LEPP 132200Z 14012KT 110V170 CAVOK 21/14 Q1013
LESO - San Sebastian/Fu, Spain
Distance from station: NE 85km
Actualización: 14/10/2019 00:00
Despejado
Despejado
 Viento del SSO
Viento: SSO 6 km/h
Temperatura: 18°C
Rocío: 16°C
Humedad: 88%
Barómetro: 1009 hPa
Clouds: Despejado
Visibility: 10 km
2019/10/13 22:00 LESO 132200Z AUTO 21003KT 160V260 9999 NCD 18/16 Q1009
LEBG - Burgos/Villafria, Spain
Distance from station: SO 100km
Actualización: 14/10/2019 00:00
Despejado
Despejado
 Viento del S
Viento: S 30 km/h, Racha: 48 km/h
Temperatura: 17°C
Rocío: 5°C
Humedad: 45%
Barómetro: 1013 hPa
Clouds: Despejado
Visibility: 10 km
2019/10/13 22:00 LEBG 132200Z AUTO 18016G26KT 9999 NCD 17/05 Q1013
 
LFBZ - Biarritz/Anglet, France
Distance from station: NE 111km
Actualización: 14/10/2019 00:00
Despejado
Despejado
 Viento del SO
Viento: SO 7 km/h
Temperatura: 19°C
Rocío: 17°C
Humedad: 88%
Barómetro: 1009 hPa
Resumen: Despejado
Visibility: greater than 10 km
2019/10/13 22:00 LFBZ 132200Z AUTO 23004KT 200V260 CAVOK 19/17 Q1009 TEMPO 2000 BR BKN005
LEXJ - Santander/Paraya, Spain
Distance from station: ONO 117km
Actualización: 14/10/2019 00:00
Despejado
Despejado
 Viento del SO
Viento: SO 6 km/h
Temperatura: 16°C
Rocío: 15°C
Humedad: 94%
Barómetro: 1008 hPa
Clouds: Despejado
Visibility: 6 km
2019/10/13 22:00 LEXJ 132200Z AUTO 23003KT 6000 NCD 16/15 Q1008